createdAt,value
2022-08-22T00:00:42.829Z,2.95
2022-08-22T00:03:10.196Z,2.92
2022-08-22T00:03:18.752Z,2.90
2022-08-22T00:05:46.333Z,3.00
2022-08-22T00:08:13.407Z,3.00
2022-08-22T00:10:40.449Z,2.90
2022-08-22T00:13:07.519Z,2.83
2022-08-22T00:15:43.755Z,2.72
2022-08-22T00:18:11.335Z,3.00
2022-08-22T00:20:38.385Z,2.85
2022-08-22T00:23:05.432Z,2.75
2022-08-22T00:25:32.464Z,2.92
2022-08-22T00:28:00.359Z,3.10
2022-08-22T00:30:27.690Z,2.90
2022-08-22T00:32:54.738Z,2.88
2022-08-22T00:35:21.830Z,3.00
2022-08-22T00:37:48.879Z,3.30
2022-08-22T00:40:15.991Z,3.00
2022-08-22T00:42:44.395Z,2.83
2022-08-22T00:45:11.450Z,2.95
2022-08-22T00:47:38.512Z,3.05
2022-08-22T00:50:05.550Z,3.00
2022-08-22T00:52:32.584Z,2.60
2022-08-22T00:54:59.877Z,2.72
2022-08-22T00:57:26.987Z,2.97
2022-08-22T00:59:54.034Z,3.20
2022-08-22T01:02:21.790Z,3.10
2022-08-22T01:04:48.950Z,3.10
2022-08-22T01:07:15.997Z,2.80
2022-08-22T01:09:43.189Z,2.90
2022-08-22T01:12:11.965Z,2.90
2022-08-22T01:14:39.031Z,3.05
2022-08-22T01:17:06.162Z,2.80
2022-08-22T01:19:33.427Z,2.70
2022-08-22T01:22:01.161Z,3.10
2022-08-22T01:24:28.247Z,3.00
2022-08-22T01:26:55.314Z,3.05
2022-08-22T01:29:27.804Z,3.10
2022-08-22T01:31:55.793Z,2.80
2022-08-22T01:34:22.900Z,3.05
2022-08-22T01:36:49.954Z,2.70
2022-08-22T01:39:16.992Z,2.80
2022-08-22T01:41:44.048Z,2.95
2022-08-22T01:44:11.092Z,2.90
2022-08-22T01:46:38.245Z,2.80
2022-08-22T01:49:05.288Z,3.03
2022-08-22T01:51:32.335Z,2.90
2022-08-22T01:53:59.430Z,3.00
2022-08-22T01:56:26.542Z,2.78
2022-08-22T01:58:53.583Z,3.20
2022-08-22T02:01:21.072Z,3.10
2022-08-22T02:03:48.161Z,2.75
2022-08-22T02:06:15.203Z,2.70
2022-08-22T02:08:42.385Z,3.10
2022-08-22T02:11:10.539Z,2.50
2022-08-22T02:13:37.623Z,2.72
2022-08-22T02:16:04.706Z,2.83
2022-08-22T02:18:32.007Z,2.80
2022-08-22T02:20:59.092Z,2.90
2022-08-22T02:23:26.122Z,2.75
2022-08-22T02:25:53.458Z,2.75
2022-08-22T02:28:20.506Z,2.70
2022-08-22T02:30:47.569Z,2.70
2022-08-22T02:33:14.600Z,2.80
2022-08-22T02:35:41.659Z,2.60
2022-08-22T02:38:08.702Z,2.90
2022-08-22T02:40:35.743Z,2.75
2022-08-22T02:43:02.827Z,2.95
2022-08-22T02:45:30.162Z,2.95
2022-08-22T02:47:57.519Z,2.97
2022-08-22T02:50:24.728Z,2.90
2022-08-22T02:52:51.778Z,2.65
2022-08-22T02:55:20.003Z,2.80
2022-08-22T02:57:47.166Z,2.80
2022-08-22T03:00:31.659Z,2.85
2022-08-22T03:05:27.600Z,2.70
2022-08-22T03:07:54.742Z,2.80
2022-08-22T03:10:23.031Z,2.70
2022-08-22T03:12:51.314Z,2.97
2022-08-22T03:15:19.818Z,2.88
2022-08-22T03:17:46.888Z,2.85
2022-08-22T03:20:14.031Z,2.75
2022-08-22T03:22:43.597Z,2.80
2022-08-22T03:25:10.635Z,2.65
2022-08-22T03:27:38.322Z,2.72
2022-08-22T03:30:05.362Z,2.85
2022-08-22T03:32:34.054Z,2.80
2022-08-22T03:35:01.922Z,2.90
2022-08-22T03:37:28.970Z,2.85
2022-08-22T03:39:56.125Z,2.72
2022-08-22T03:42:23.250Z,2.90
2022-08-22T03:44:50.310Z,2.70
2022-08-22T03:47:17.349Z,2.63
2022-08-22T03:49:44.419Z,2.80
2022-08-22T03:52:11.457Z,2.78
2022-08-22T03:54:38.510Z,2.75
2022-08-22T03:57:08.554Z,2.80
2022-08-22T03:59:35.586Z,2.78
2022-08-22T04:02:31.538Z,3.25
2022-08-22T04:04:56.937Z,2.90
2022-08-22T04:07:31.535Z,2.70
2022-08-22T04:12:27.164Z,2.70
2022-08-22T04:14:54.425Z,3.00
2022-08-22T04:17:21.519Z,2.80
2022-08-22T04:19:48.571Z,3.00
2022-08-22T04:22:16.026Z,2.90
2022-08-22T04:24:43.153Z,3.00
2022-08-22T04:27:10.364Z,2.70
2022-08-22T04:29:37.421Z,2.95
2022-08-22T04:32:04.459Z,2.70
2022-08-22T04:34:32.014Z,2.90
2022-08-22T04:36:59.679Z,2.85
2022-08-22T04:39:26.734Z,2.88
2022-08-22T04:41:54.155Z,2.78
2022-08-22T04:44:21.277Z,3.10
2022-08-22T04:46:48.383Z,2.90
2022-08-22T04:49:15.679Z,2.97
2022-08-22T04:51:42.716Z,3.08
2022-08-22T04:54:09.969Z,2.90
2022-08-22T04:56:37.061Z,2.72
2022-08-22T04:59:04.643Z,3.00
2022-08-22T05:01:31.723Z,2.75
2022-08-22T05:03:58.862Z,3.00
2022-08-22T05:06:26.567Z,2.75
2022-08-22T05:08:53.671Z,3.20
2022-08-22T05:11:21.159Z,3.10
2022-08-22T05:13:48.401Z,3.17
2022-08-22T05:16:15.446Z,3.20
2022-08-22T05:18:42.499Z,2.80
2022-08-22T05:21:09.618Z,2.70
2022-08-22T05:23:40.810Z,2.90
2022-08-22T05:26:07.964Z,3.15
2022-08-22T05:28:35.021Z,2.75
2022-08-22T05:31:02.066Z,3.00
2022-08-22T05:33:30.954Z,3.15
2022-08-22T05:35:58.239Z,3.00
2022-08-22T05:38:25.331Z,2.83
2022-08-22T05:40:52.374Z,2.90
2022-08-22T05:43:19.419Z,2.85
2022-08-22T05:45:46.479Z,3.40
2022-08-22T05:48:13.548Z,2.70
2022-08-22T05:50:40.599Z,2.88
2022-08-22T05:53:07.742Z,2.65
2022-08-22T05:55:34.811Z,3.17
2022-08-22T05:58:02.063Z,2.83
2022-08-22T06:00:29.349Z,3.22
2022-08-22T06:02:56.426Z,2.97
2022-08-22T06:05:23.538Z,3.03
2022-08-22T06:07:50.575Z,3.10
2022-08-22T06:10:17.759Z,2.78
2022-08-22T06:12:44.799Z,2.90
2022-08-22T06:15:12.525Z,2.88
2022-08-22T06:17:39.739Z,3.10
2022-08-22T06:20:06.910Z,3.15
2022-08-22T06:22:33.966Z,2.97
2022-08-22T06:25:02.473Z,2.75
2022-08-22T06:27:31.149Z,2.83
2022-08-22T06:29:58.662Z,2.90
2022-08-22T06:32:58.563Z,2.97
2022-08-22T06:35:12.783Z,3.00
2022-08-22T06:37:39.868Z,2.65
2022-08-22T06:40:07.416Z,2.90
2022-08-22T06:42:34.531Z,2.85
2022-08-22T06:45:01.631Z,3.00
2022-08-22T06:47:28.698Z,2.72
2022-08-22T06:49:55.740Z,2.80
2022-08-22T06:52:23.650Z,3.00
2022-08-22T06:54:50.791Z,2.90
2022-08-22T06:57:17.848Z,3.15
2022-08-22T06:59:46.462Z,2.85
2022-08-22T07:02:13.531Z,3.08
2022-08-22T07:04:43.646Z,2.92
2022-08-22T07:07:10.686Z,2.70
2022-08-22T07:09:37.739Z,2.90
2022-08-22T07:12:04.800Z,3.00
2022-08-22T07:14:31.883Z,2.90
2022-08-22T07:16:59.019Z,2.90
2022-08-22T07:19:26.211Z,3.00
2022-08-22T07:21:53.272Z,3.00
2022-08-22T07:24:20.318Z,3.00
2022-08-22T07:26:47.364Z,3.05
2022-08-22T07:29:14.443Z,2.90
2022-08-22T07:31:44.111Z,2.92
2022-08-22T07:34:11.183Z,2.90
2022-08-22T07:36:38.224Z,3.08
2022-08-22T07:39:05.319Z,3.28
2022-08-22T07:41:38.143Z,2.85
2022-08-22T07:44:05.220Z,3.08
2022-08-22T07:46:32.277Z,2.95
2022-08-22T07:49:09.203Z,3.13
2022-08-22T07:51:36.786Z,2.80
2022-08-22T07:54:03.850Z,2.60
2022-08-22T07:56:30.898Z,2.80
2022-08-22T07:58:58.117Z,2.95
2022-08-22T08:01:25.952Z,3.05
2022-08-22T08:03:53.171Z,3.08
2022-08-22T08:06:20.227Z,3.10
2022-08-22T08:08:47.290Z,3.15
2022-08-22T08:11:14.384Z,3.20
2022-08-22T08:13:41.642Z,3.10
2022-08-22T08:16:09.586Z,3.10
2022-08-22T08:18:36.802Z,3.17
2022-08-22T08:21:06.747Z,2.97
2022-08-22T08:23:37.869Z,3.38
2022-08-22T08:26:06.518Z,3.00
2022-08-22T08:28:38.060Z,3.00
2022-08-22T08:31:07.743Z,2.70
2022-08-22T08:33:34.785Z,2.60
2022-08-22T08:36:03.240Z,2.90
2022-08-22T08:38:31.338Z,3.08
2022-08-22T08:40:58.413Z,2.80
2022-08-22T08:43:29.688Z,2.60
2022-08-22T08:45:59.201Z,2.80
2022-08-22T08:48:26.491Z,2.63
2022-08-22T08:50:53.571Z,2.80
2022-08-22T08:53:21.845Z,2.78
2022-08-22T08:55:51.215Z,2.45
2022-08-22T08:58:18.369Z,2.42
2022-08-22T09:00:46.365Z,2.40
2022-08-22T09:03:21.158Z,2.45
2022-08-22T09:05:54.486Z,2.38
2022-08-22T09:08:21.644Z,2.60
2022-08-22T09:10:48.764Z,2.60
2022-08-22T09:13:16.292Z,2.60
2022-08-22T09:15:43.373Z,2.30
2022-08-22T09:18:25.607Z,2.38
2022-08-22T09:20:54.168Z,2.10
2022-08-22T09:23:21.635Z,2.30
2022-08-22T09:25:48.698Z,2.20
2022-08-22T09:28:15.791Z,2.10
2022-08-22T09:30:42.906Z,2.22
2022-08-22T09:33:11.156Z,2.30
2022-08-22T09:35:38.693Z,2.25
2022-08-22T09:38:05.793Z,2.28
2022-08-22T09:40:32.880Z,2.10
2022-08-22T09:43:01.685Z,2.22
2022-08-22T09:45:29.518Z,2.20
2022-08-22T09:47:57.178Z,2.25
2022-08-22T09:50:33.529Z,2.00
2022-08-22T09:53:00.804Z,1.90
2022-08-22T09:55:35.243Z,1.98
2022-08-22T09:58:03.057Z,2.00
2022-08-22T10:00:30.919Z,2.42
2022-08-22T10:02:58.861Z,1.95
2022-08-22T10:05:40.325Z,1.80
2022-08-22T10:08:11.485Z,2.00
2022-08-22T10:10:38.658Z,1.90
2022-08-22T10:13:10.452Z,2.00
2022-08-22T10:15:37.782Z,1.88
2022-08-22T10:18:04.903Z,2.03
2022-08-22T10:20:32.208Z,2.00
2022-08-22T10:23:03.589Z,1.98
2022-08-22T10:25:30.734Z,1.85
2022-08-22T10:27:57.848Z,1.98
2022-08-22T10:30:24.924Z,1.95
2022-08-22T10:32:51.977Z,2.00
2022-08-22T10:35:19.547Z,1.90
2022-08-22T10:37:46.687Z,1.90
2022-08-22T10:40:17.789Z,2.20
2022-08-22T10:42:45.887Z,1.75
2022-08-22T10:45:12.943Z,1.90
2022-08-22T10:47:40.922Z,1.80
2022-08-22T10:50:10.694Z,1.85
2022-08-22T10:52:38.635Z,1.95
2022-08-22T10:55:09.661Z,1.90
2022-08-22T10:57:37.160Z,1.80
2022-08-22T11:00:04.314Z,1.90
2022-08-22T11:02:31.379Z,1.60
2022-08-22T11:04:58.736Z,1.90
2022-08-22T11:07:29.648Z,1.90
2022-08-22T11:09:57.710Z,1.90
2022-08-22T11:12:28.187Z,1.98
2022-08-22T11:15:02.947Z,2.00
2022-08-22T11:17:33.892Z,1.88
2022-08-22T11:20:05.012Z,1.80
2022-08-22T11:22:32.131Z,1.67
2022-08-22T11:25:04.004Z,1.70
2022-08-22T11:27:39.535Z,1.88
2022-08-22T11:30:07.394Z,1.70
2022-08-22T11:32:34.582Z,1.80
2022-08-22T11:35:04.396Z,1.60
2022-08-22T11:37:43.316Z,1.70
2022-08-22T11:40:11.845Z,1.80
2022-08-22T11:42:58.095Z,1.60
2022-08-22T11:45:26.834Z,1.73
2022-08-22T11:47:54.412Z,1.60
2022-08-22T11:50:22.462Z,1.50
2022-08-22T11:52:51.763Z,1.75
2022-08-22T11:55:19.165Z,1.70
2022-08-22T11:57:48.849Z,1.80
2022-08-22T12:00:16.868Z,1.70
2022-08-22T12:02:47.972Z,1.50
2022-08-22T12:05:20.013Z,1.60
2022-08-22T12:07:53.500Z,1.67
2022-08-22T12:10:20.630Z,1.50
2022-08-22T12:12:52.663Z,1.60
2022-08-22T12:15:21.533Z,1.55
2022-08-22T12:17:55.808Z,1.73
2022-08-22T12:20:28.094Z,1.70
2022-08-22T12:22:55.240Z,1.60
2022-08-22T12:25:22.596Z,1.70
2022-08-22T12:27:50.802Z,1.40
2022-08-22T12:30:21.143Z,1.60
2022-08-22T12:32:49.159Z,1.80
2022-08-22T12:35:16.434Z,1.52
2022-08-22T12:37:52.690Z,1.52
2022-08-22T12:40:20.341Z,1.73
2022-08-22T12:42:53.524Z,1.45
2022-08-22T12:45:20.667Z,1.45
2022-08-22T12:47:49.826Z,1.55
2022-08-22T12:50:17.590Z,1.58
2022-08-22T12:52:44.627Z,1.70
2022-08-22T12:55:11.854Z,1.38
2022-08-22T12:57:38.950Z,1.50
2022-08-22T13:00:06.004Z,1.52
2022-08-22T13:02:33.165Z,1.52
2022-08-22T13:05:01.161Z,1.55
2022-08-22T13:07:29.090Z,1.58
2022-08-22T13:09:57.699Z,1.60
2022-08-22T13:12:26.146Z,1.48
2022-08-22T13:14:54.764Z,1.50
2022-08-22T13:17:25.807Z,1.55
2022-08-22T13:19:52.935Z,1.40
2022-08-22T13:22:20.053Z,1.50
2022-08-22T13:24:51.855Z,1.42
2022-08-22T13:27:20.297Z,1.50
2022-08-22T13:29:47.492Z,1.40
2022-08-22T13:32:14.536Z,1.25
2022-08-22T13:34:43.541Z,1.50
2022-08-22T13:37:10.853Z,1.60
2022-08-22T13:39:38.692Z,1.60
2022-08-22T13:42:07.641Z,1.45
2022-08-22T13:44:41.711Z,1.40
2022-08-22T13:47:14.588Z,1.30
2022-08-22T13:49:41.912Z,1.42
2022-08-22T13:52:20.653Z,1.40
2022-08-22T13:54:56.712Z,1.67
2022-08-22T13:57:24.672Z,1.52
2022-08-22T13:59:55.426Z,1.65
2022-08-22T14:02:30.913Z,1.50
2022-08-22T14:04:59.603Z,1.42
2022-08-22T14:07:26.676Z,1.50
2022-08-22T14:09:54.310Z,1.50
2022-08-22T14:12:22.028Z,1.55
2022-08-22T14:14:49.587Z,1.45
2022-08-22T14:17:19.545Z,1.50
2022-08-22T14:19:52.857Z,1.30
2022-08-22T14:22:20.299Z,1.50
2022-08-22T14:24:59.224Z,1.48
2022-08-22T14:27:26.903Z,1.30
2022-08-22T14:29:54.887Z,1.40
2022-08-22T14:32:22.747Z,1.88
2022-08-22T14:34:52.289Z,1.75
2022-08-22T14:37:19.543Z,1.90
2022-08-22T14:39:47.448Z,1.67
2022-08-22T14:42:20.704Z,1.70
2022-08-22T14:44:47.833Z,1.70
2022-08-22T14:47:54.397Z,1.77
2022-08-22T14:50:09.467Z,2.30
2022-08-22T14:52:38.570Z,1.80
2022-08-22T14:55:08.411Z,1.50
2022-08-22T14:57:35.936Z,1.58
2022-08-22T15:00:10.996Z,1.50
2022-08-22T15:02:38.101Z,1.67
2022-08-22T15:05:05.583Z,1.73
2022-08-22T15:07:32.861Z,1.50
2022-08-22T15:10:03.217Z,1.50
2022-08-22T15:12:30.774Z,1.60
2022-08-22T15:14:57.860Z,1.77
2022-08-22T15:17:24.917Z,1.60
2022-08-22T15:19:52.073Z,1.70
2022-08-22T15:22:19.310Z,1.60
2022-08-22T15:24:46.549Z,1.48
2022-08-22T15:27:13.664Z,1.73
2022-08-22T15:29:40.716Z,1.63
2022-08-22T15:32:07.922Z,1.60
2022-08-22T15:34:36.126Z,1.60
2022-08-22T15:37:08.355Z,1.80
2022-08-22T15:39:38.173Z,1.80
2022-08-22T15:42:05.298Z,1.45
2022-08-22T15:44:33.575Z,1.45
2022-08-22T15:47:00.763Z,1.40
2022-08-22T15:49:27.829Z,1.60
2022-08-22T15:51:54.884Z,1.60
2022-08-22T15:54:24.611Z,1.45
2022-08-22T15:56:52.784Z,1.50
2022-08-22T15:59:19.993Z,1.45
2022-08-22T16:01:48.785Z,1.40
2022-08-22T16:04:16.942Z,1.38
2022-08-22T16:06:43.975Z,1.40
2022-08-22T16:09:11.051Z,1.70
2022-08-22T16:11:38.550Z,1.75
2022-08-22T16:14:05.618Z,1.48
2022-08-22T16:16:34.130Z,1.50
2022-08-22T16:19:01.243Z,1.30
2022-08-22T16:21:28.278Z,1.75
2022-08-22T16:23:58.377Z,1.40
2022-08-22T16:26:25.423Z,1.40
2022-08-22T16:28:58.356Z,1.40
2022-08-22T16:31:27.392Z,1.60
2022-08-22T16:33:54.790Z,1.52
2022-08-22T16:36:22.625Z,1.40
2022-08-22T16:38:49.660Z,1.58
2022-08-22T16:41:16.704Z,1.30
2022-08-22T16:43:55.119Z,1.40
2022-08-22T16:46:22.398Z,1.40
2022-08-22T16:48:54.949Z,1.60
2022-08-22T16:51:22.506Z,1.45
2022-08-22T16:53:49.614Z,1.30
2022-08-22T16:56:16.675Z,1.20
2022-08-22T16:58:56.982Z,1.23
2022-08-22T17:01:28.069Z,1.20
2022-08-22T17:03:55.166Z,1.30
2022-08-22T17:06:23.218Z,1.35
2022-08-22T17:08:50.316Z,2.30
2022-08-22T17:11:17.389Z,1.25
2022-08-22T17:13:44.626Z,1.48
2022-08-22T17:16:13.374Z,1.65
2022-08-22T17:18:40.414Z,1.95
2022-08-22T17:21:08.203Z,1.60
2022-08-22T17:23:35.290Z,2.55
2022-08-22T17:26:02.341Z,1.30
2022-08-22T17:28:33.923Z,1.40
2022-08-22T17:31:01.466Z,1.77
2022-08-22T17:33:28.945Z,1.70
2022-08-22T17:35:56.654Z,1.67
2022-08-22T17:38:23.705Z,1.40
2022-08-22T17:40:50.812Z,1.30
2022-08-22T17:43:18.008Z,1.40
2022-08-22T17:45:45.072Z,1.70
2022-08-22T17:48:12.142Z,1.45
2022-08-22T17:50:39.480Z,1.40
2022-08-22T17:53:06.590Z,1.75
2022-08-22T17:55:33.698Z,1.50
2022-08-22T17:58:00.974Z,1.20
2022-08-22T18:00:33.170Z,1.85
2022-08-22T18:03:00.551Z,1.52
2022-08-22T18:05:27.772Z,1.67
2022-08-22T18:07:54.894Z,1.50
2022-08-22T18:10:21.999Z,1.60
2022-08-22T18:12:51.702Z,1.48
2022-08-22T18:15:18.867Z,1.65
2022-08-22T18:17:46.419Z,1.55
2022-08-22T18:20:13.814Z,1.42
2022-08-22T18:22:40.994Z,1.40
2022-08-22T18:25:08.673Z,1.40
2022-08-22T18:27:35.820Z,1.42
2022-08-22T18:30:02.922Z,1.40
2022-08-22T18:32:30.065Z,1.35
2022-08-22T18:35:02.706Z,1.58
2022-08-22T18:37:29.953Z,1.40
2022-08-22T18:39:58.867Z,1.40
2022-08-22T18:42:25.989Z,1.55
2022-08-22T18:44:53.048Z,1.60
2022-08-22T18:47:20.167Z,1.50
2022-08-22T18:49:48.374Z,1.48
2022-08-22T18:52:15.463Z,1.52
2022-08-22T18:54:42.512Z,1.40
2022-08-22T18:57:09.567Z,1.30
2022-08-22T18:59:36.609Z,1.60
2022-08-22T19:02:03.707Z,1.40
2022-08-22T19:04:30.819Z,1.40
2022-08-22T19:06:58.567Z,1.60
2022-08-22T19:09:25.620Z,1.55
2022-08-22T19:11:55.580Z,1.60
2022-08-22T19:14:24.763Z,1.58
2022-08-22T19:16:51.892Z,1.42
2022-08-22T19:19:18.958Z,1.60
2022-08-22T19:22:04.829Z,1.67
2022-08-22T19:24:31.899Z,1.55
2022-08-22T19:26:59.165Z,1.42
2022-08-22T19:29:26.337Z,1.40
2022-08-22T19:31:53.463Z,1.48
2022-08-22T19:34:24.120Z,1.40
2022-08-22T19:36:51.192Z,1.58
2022-08-22T19:39:18.236Z,1.60
2022-08-22T19:41:45.554Z,1.50
2022-08-22T19:44:12.727Z,1.77
2022-08-22T19:46:39.811Z,1.45
2022-08-22T19:49:06.851Z,1.60
2022-08-22T19:51:33.896Z,1.70
2022-08-22T19:54:00.961Z,1.75
2022-08-22T19:56:28.064Z,1.60
2022-08-22T19:58:55.173Z,1.63
2022-08-22T20:01:22.376Z,1.60
2022-08-22T20:03:49.571Z,1.70
2022-08-22T20:06:40.711Z,1.60
2022-08-22T20:09:04.084Z,1.80
2022-08-22T20:11:32.600Z,1.42
2022-08-22T20:13:59.651Z,1.50
2022-08-22T20:16:26.711Z,1.60
2022-08-22T20:19:05.972Z,1.50
2022-08-22T20:21:38.694Z,1.90
2022-08-22T20:24:07.224Z,1.70
2022-08-22T20:26:34.276Z,1.60
2022-08-22T20:29:01.611Z,1.85
2022-08-22T20:31:29.114Z,1.73
2022-08-22T20:33:56.198Z,1.70
2022-08-22T20:36:27.780Z,1.50
2022-08-22T20:38:57.017Z,1.77
2022-08-22T20:41:24.261Z,1.63
2022-08-22T20:43:51.535Z,1.70
2022-08-22T20:46:19.259Z,1.77
2022-08-22T20:48:47.267Z,1.67
2022-08-22T20:51:14.315Z,1.90
2022-08-22T20:53:41.360Z,2.53
2022-08-22T20:56:09.642Z,1.75
2022-08-22T20:58:37.712Z,1.63
2022-08-22T21:01:04.934Z,1.60
2022-08-22T21:03:32.074Z,1.74
2022-08-22T21:05:59.157Z,1.73
2022-08-22T21:08:26.430Z,1.75
2022-08-22T21:11:12.146Z,1.75
2022-08-22T21:16:06.244Z,1.70
2022-08-22T21:18:33.385Z,1.90
2022-08-22T21:21:00.991Z,1.60
2022-08-22T21:23:28.054Z,1.77
2022-08-22T21:25:56.455Z,1.80
2022-08-22T21:28:23.760Z,1.70
2022-08-22T21:30:50.806Z,1.80
2022-08-22T21:33:23.956Z,1.85
2022-08-22T21:35:51.276Z,1.77
2022-08-22T21:38:18.426Z,1.92
2022-08-22T21:40:45.477Z,1.88
2022-08-22T21:43:12.522Z,1.90
2022-08-22T21:45:39.568Z,1.80
2022-08-22T21:48:16.293Z,1.67
2022-08-22T21:50:43.812Z,1.98
2022-08-22T21:53:12.062Z,1.80
2022-08-22T21:55:43.045Z,1.80
2022-08-22T21:58:10.142Z,1.88
2022-08-22T22:00:39.752Z,1.90
2022-08-22T22:03:15.743Z,1.95
2022-08-22T22:05:42.831Z,1.90
2022-08-22T22:08:11.197Z,2.10
2022-08-22T22:10:38.589Z,1.88
2022-08-22T22:13:07.511Z,1.90
2022-08-22T22:15:34.583Z,2.03
2022-08-22T22:18:01.707Z,1.90
2022-08-22T22:20:28.884Z,2.00
2022-08-22T22:22:55.976Z,1.75
2022-08-22T22:25:41.192Z,1.90
2022-08-22T22:28:09.013Z,1.88
2022-08-22T22:30:36.125Z,1.98
2022-08-22T22:33:03.166Z,1.92
2022-08-22T22:35:30.293Z,2.05
2022-08-22T22:37:57.410Z,1.88
2022-08-22T22:40:24.652Z,2.00
2022-08-22T22:42:52.052Z,2.00
2022-08-22T22:45:19.177Z,2.10
2022-08-22T22:47:46.292Z,2.00
2022-08-22T22:50:13.424Z,2.00
2022-08-22T22:52:40.787Z,1.90
2022-08-22T22:55:08.171Z,2.13
2022-08-22T22:57:41.387Z,1.90
2022-08-22T23:00:10.504Z,1.90
2022-08-22T23:02:37.566Z,2.00
2022-08-22T23:05:04.675Z,2.10
2022-08-22T23:07:33.816Z,2.10
2022-08-22T23:10:01.426Z,2.63
2022-08-22T23:12:29.296Z,2.10
2022-08-22T23:14:56.343Z,2.30
2022-08-22T23:17:23.424Z,2.38
2022-08-22T23:19:50.471Z,2.33
2022-08-22T23:22:17.520Z,1.83
2022-08-22T23:24:44.640Z,2.03
2022-08-22T23:27:11.710Z,2.10
2022-08-22T23:29:40.853Z,2.00
2022-08-22T23:32:07.888Z,2.20
2022-08-22T23:34:34.959Z,2.08
2022-08-22T23:37:02.009Z,2.10
2022-08-22T23:39:32.868Z,2.25
2022-08-22T23:41:59.939Z,2.25
2022-08-22T23:44:27.005Z,2.30
2022-08-22T23:46:55.797Z,2.17
2022-08-22T23:49:22.844Z,2.10
2022-08-22T23:51:49.955Z,2.47
2022-08-22T23:54:17.018Z,2.08
2022-08-22T23:56:44.173Z,2.22
2022-08-22T23:59:11.655Z,2.10
